sensor_id;sensor_type;location;lat;lon;timestamp;pressure;altitude;pressure_sealevel;temperature
14023;BMP180;7086;48.116;11.580;2023-04-16T00:01:24;95053.00;;;10.20
14023;BMP180;7086;48.116;11.580;2023-04-16T00:03:51;95050.00;;;10.10
14023;BMP180;7086;48.116;11.580;2023-04-16T00:06:18;95049.00;;;10.10
14023;BMP180;7086;48.116;11.580;2023-04-16T00:08:45;95067.00;;;10.10
14023;BMP180;7086;48.116;11.580;2023-04-16T00:11:13;94956.00;;;10.10
14023;BMP180;7086;48.116;11.580;2023-04-16T00:13:40;95055.00;;;10.10
14023;BMP180;7086;48.116;11.580;2023-04-16T00:16:07;95030.00;;;10.10
14023;BMP180;7086;48.116;11.580;2023-04-16T00:18:34;95031.00;;;10.10
14023;BMP180;7086;48.116;11.580;2023-04-16T00:21:01;95058.00;;;10.10
14023;BMP180;7086;48.116;11.580;2023-04-16T00:23:28;95048.00;;;10.10
14023;BMP180;7086;48.116;11.580;2023-04-16T00:25:55;95032.00;;;10.10
14023;BMP180;7086;48.116;11.580;2023-04-16T00:28:25;95051.00;;;10.10
14023;BMP180;7086;48.116;11.580;2023-04-16T00:30:52;95053.00;;;10.00
14023;BMP180;7086;48.116;11.580;2023-04-16T00:33:20;95049.00;;;10.00
14023;BMP180;7086;48.116;11.580;2023-04-16T00:35:47;95061.00;;;10.10
14023;BMP180;7086;48.116;11.580;2023-04-16T00:38:14;95049.00;;;10.10
14023;BMP180;7086;48.116;11.580;2023-04-16T00:40:41;95035.00;;;10.00
14023;BMP180;7086;48.116;11.580;2023-04-16T00:43:07;95060.00;;;10.00
14023;BMP180;7086;48.116;11.580;2023-04-16T00:45:36;95041.00;;;10.10
14023;BMP180;7086;48.116;11.580;2023-04-16T00:48:03;95046.00;;;10.10
14023;BMP180;7086;48.116;11.580;2023-04-16T00:50:30;95049.00;;;10.10
14023;BMP180;7086;48.116;11.580;2023-04-16T00:52:57;95050.00;;;10.00
14023;BMP180;7086;48.116;11.580;2023-04-16T00:55:24;95048.00;;;10.00
14023;BMP180;7086;48.116;11.580;2023-04-16T00:57:51;95054.00;;;10.00
14023;BMP180;7086;48.116;11.580;2023-04-16T01:00:18;95052.00;;;10.10
14023;BMP180;7086;48.116;11.580;2023-04-16T01:02:47;95049.00;;;10.10
14023;BMP180;7086;48.116;11.580;2023-04-16T01:05:13;95053.00;;;10.10
14023;BMP180;7086;48.116;11.580;2023-04-16T01:07:40;95057.00;;;10.00
14023;BMP180;7086;48.116;11.580;2023-04-16T01:10:07;95052.00;;;10.10
14023;BMP180;7086;48.116;11.580;2023-04-16T01:12:34;95057.00;;;10.10
14023;BMP180;7086;48.116;11.580;2023-04-16T01:15:01;95037.00;;;10.10
14023;BMP180;7086;48.116;11.580;2023-04-16T01:17:28;95038.00;;;10.10
14023;BMP180;7086;48.116;11.580;2023-04-16T01:19:58;95041.00;;;10.10
14023;BMP180;7086;48.116;11.580;2023-04-16T01:22:27;95034.00;;;10.10
14023;BMP180;7086;48.116;11.580;2023-04-16T01:24:53;95064.00;;;10.10
14023;BMP180;7086;48.116;11.580;2023-04-16T01:27:20;95063.00;;;10.10
14023;BMP180;7086;48.116;11.580;2023-04-16T01:29:47;95053.00;;;10.00
14023;BMP180;7086;48.116;11.580;2023-04-16T01:32:14;95063.00;;;10.10
14023;BMP180;7086;48.116;11.580;2023-04-16T01:34:40;95068.00;;;10.10
14023;BMP180;7086;48.116;11.580;2023-04-16T01:37:07;95061.00;;;10.00
14023;BMP180;7086;48.116;11.580;2023-04-16T01:39:36;95054.00;;;10.10
14023;BMP180;7086;48.116;11.580;2023-04-16T01:42:02;95071.00;;;10.10
14023;BMP180;7086;48.116;11.580;2023-04-16T01:44:29;95073.00;;;10.10
14023;BMP180;7086;48.116;11.580;2023-04-16T01:46:56;95046.00;;;10.20
14023;BMP180;7086;48.116;11.580;2023-04-16T01:49:23;95070.00;;;10.10
14023;BMP180;7086;48.116;11.580;2023-04-16T01:51:50;95003.00;;;10.20
14023;BMP180;7086;48.116;11.580;2023-04-16T01:54:17;95074.00;;;10.20
14023;BMP180;7086;48.116;11.580;2023-04-16T01:56:45;95073.00;;;10.10
14023;BMP180;7086;48.116;11.580;2023-04-16T01:59:12;95083.00;;;10.20
14023;BMP180;7086;48.116;11.580;2023-04-16T02:01:39;95075.00;;;10.10
14023;BMP180;7086;48.116;11.580;2023-04-16T02:04:06;95069.00;;;10.20
14023;BMP180;7086;48.116;11.580;2023-04-16T02:06:33;95047.00;;;10.20
14023;BMP180;7086;48.116;11.580;2023-04-16T02:09:00;95076.00;;;10.20
14023;BMP180;7086;48.116;11.580;2023-04-16T02:11:27;95065.00;;;10.20
14023;BMP180;7086;48.116;11.580;2023-04-16T02:13:55;95078.00;;;10.30
14023;BMP180;7086;48.116;11.580;2023-04-16T02:16:21;95080.00;;;10.20
14023;BMP180;7086;48.116;11.580;2023-04-16T02:18:49;95080.00;;;10.30
14023;BMP180;7086;48.116;11.580;2023-04-16T02:21:15;95078.00;;;10.30
14023;BMP180;7086;48.116;11.580;2023-04-16T02:23:42;95078.00;;;10.30
14023;BMP180;7086;48.116;11.580;2023-04-16T02:26:12;95065.00;;;10.30
14023;BMP180;7086;48.116;11.580;2023-04-16T02:28:39;95068.00;;;10.30
14023;BMP180;7086;48.116;11.580;2023-04-16T02:31:07;95076.00;;;10.30
14023;BMP180;7086;48.116;11.580;2023-04-16T02:33:34;95084.00;;;10.30
14023;BMP180;7086;48.116;11.580;2023-04-16T02:36:00;95074.00;;;10.30
14023;BMP180;7086;48.116;11.580;2023-04-16T02:38:27;95090.00;;;10.30
14023;BMP180;7086;48.116;11.580;2023-04-16T02:40:54;95072.00;;;10.30
14023;BMP180;7086;48.116;11.580;2023-04-16T02:43:21;95081.00;;;10.30
14023;BMP180;7086;48.116;11.580;2023-04-16T02:45:47;95077.00;;;10.30
14023;BMP180;7086;48.116;11.580;2023-04-16T02:48:16;95075.00;;;10.30
14023;BMP180;7086;48.116;11.580;2023-04-16T02:50:42;95083.00;;;10.30
14023;BMP180;7086;48.116;11.580;2023-04-16T02:53:09;95074.00;;;10.30
14023;BMP180;7086;48.116;11.580;2023-04-16T02:55:36;95059.00;;;10.30
14023;BMP180;7086;48.116;11.580;2023-04-16T02:58:03;95075.00;;;10.30
14023;BMP180;7086;48.116;11.580;2023-04-16T03:00:29;95082.00;;;10.30
14023;BMP180;7086;48.116;11.580;2023-04-16T03:02:56;95073.00;;;10.30
14023;BMP180;7086;48.116;11.580;2023-04-16T03:05:24;95087.00;;;10.30
14023;BMP180;7086;48.116;11.580;2023-04-16T03:07:51;95075.00;;;10.30
14023;BMP180;7086;48.116;11.580;2023-04-16T03:10:20;95090.00;;;10.40
14023;BMP180;7086;48.116;11.580;2023-04-16T03:12:47;95097.00;;;10.40
14023;BMP180;7086;48.116;11.580;2023-04-16T03:15:14;95101.00;;;10.40
14023;BMP180;7086;48.116;11.580;2023-04-16T03:17:41;95103.00;;;10.40
14023;BMP180;7086;48.116;11.580;2023-04-16T03:20:08;95104.00;;;10.40
14023;BMP180;7086;48.116;11.580;2023-04-16T03:22:37;95097.00;;;10.40
14023;BMP180;7086;48.116;11.580;2023-04-16T03:25:04;95088.00;;;10.40
14023;BMP180;7086;48.116;11.580;2023-04-16T03:27:31;95040.00;;;10.40
14023;BMP180;7086;48.116;11.580;2023-04-16T03:29:58;95092.00;;;10.40
14023;BMP180;7086;48.116;11.580;2023-04-16T03:32:25;95103.00;;;10.40
14023;BMP180;7086;48.116;11.580;2023-04-16T03:34:52;95105.00;;;10.30
14023;BMP180;7086;48.116;11.580;2023-04-16T03:37:18;95111.00;;;10.40
14023;BMP180;7086;48.116;11.580;2023-04-16T03:39:47;95109.00;;;10.40
14023;BMP180;7086;48.116;11.580;2023-04-16T03:42:13;95110.00;;;10.40
14023;BMP180;7086;48.116;11.580;2023-04-16T03:44:40;95104.00;;;10.40
14023;BMP180;7086;48.116;11.580;2023-04-16T03:47:07;95111.00;;;10.40
14023;BMP180;7086;48.116;11.580;2023-04-16T03:49:34;95108.00;;;10.40
14023;BMP180;7086;48.116;11.580;2023-04-16T03:52:00;95109.00;;;10.40
14023;BMP180;7086;48.116;11.580;2023-04-16T03:54:27;95111.00;;;10.40
14023;BMP180;7086;48.116;11.580;2023-04-16T03:56:55;95113.00;;;10.40
14023;BMP180;7086;48.116;11.580;2023-04-16T03:59:22;95103.00;;;10.40
14023;BMP180;7086;48.116;11.580;2023-04-16T04:01:49;95122.00;;;10.40
14023;BMP180;7086;48.116;11.580;2023-04-16T04:04:16;95120.00;;;10.40
14023;BMP180;7086;48.116;11.580;2023-04-16T04:06:44;95127.00;;;10.40
14023;BMP180;7086;48.116;11.580;2023-04-16T04:09:10;95134.00;;;10.40
14023;BMP180;7086;48.116;11.580;2023-04-16T04:11:37;95131.00;;;10.30
14023;BMP180;7086;48.116;11.580;2023-04-16T04:14:05;95118.00;;;10.40
14023;BMP180;7086;48.116;11.580;2023-04-16T04:16:32;95121.00;;;10.40
14023;BMP180;7086;48.116;11.580;2023-04-16T04:18:59;95126.00;;;10.30
14023;BMP180;7086;48.116;11.580;2023-04-16T04:21:26;95104.00;;;10.30
14023;BMP180;7086;48.116;11.580;2023-04-16T04:23:53;95128.00;;;10.30
14023;BMP180;7086;48.116;11.580;2023-04-16T04:26:19;95125.00;;;10.30
14023;BMP180;7086;48.116;11.580;2023-04-16T04:28:46;95120.00;;;10.30
14023;BMP180;7086;48.116;11.580;2023-04-16T04:31:14;95127.00;;;10.30
14023;BMP180;7086;48.116;11.580;2023-04-16T04:33:41;95127.00;;;10.30
14023;BMP180;7086;48.116;11.580;2023-04-16T04:36:08;95142.00;;;10.30
14023;BMP180;7086;48.116;11.580;2023-04-16T04:38:35;95137.00;;;10.30
14023;BMP180;7086;48.116;11.580;2023-04-16T04:41:02;95129.00;;;10.30
14023;BMP180;7086;48.116;11.580;2023-04-16T04:43:28;95138.00;;;10.30
14023;BMP180;7086;48.116;11.580;2023-04-16T04:45:55;95133.00;;;10.30
14023;BMP180;7086;48.116;11.580;2023-04-16T04:48:23;95150.00;;;10.30
14023;BMP180;7086;48.116;11.580;2023-04-16T04:50:51;95151.00;;;10.30
14023;BMP180;7086;48.116;11.580;2023-04-16T04:53:18;95131.00;;;10.20
14023;BMP180;7086;48.116;11.580;2023-04-16T04:55:45;95149.00;;;10.10
14023;BMP180;7086;48.116;11.580;2023-04-16T04:58:11;95146.00;;;10.30
14023;BMP180;7086;48.116;11.580;2023-04-16T05:00:38;95151.00;;;10.30
14023;BMP180;7086;48.116;11.580;2023-04-16T05:03:08;95124.00;;;10.20
14023;BMP180;7086;48.116;11.580;2023-04-16T05:05:37;95139.00;;;10.20
14023;BMP180;7086;48.116;11.580;2023-04-16T05:08:04;95149.00;;;10.20
14023;BMP180;7086;48.116;11.580;2023-04-16T05:10:30;95163.00;;;10.20
14023;BMP180;7086;48.116;11.580;2023-04-16T05:12:57;95160.00;;;10.20
14023;BMP180;7086;48.116;11.580;2023-04-16T05:15:24;95164.00;;;10.20
14023;BMP180;7086;48.116;11.580;2023-04-16T05:17:51;95162.00;;;10.30
14023;BMP180;7086;48.116;11.580;2023-04-16T05:20:17;95162.00;;;10.30
14023;BMP180;7086;48.116;11.580;2023-04-16T05:22:46;95169.00;;;10.30
14023;BMP180;7086;48.116;11.580;2023-04-16T05:25:12;95170.00;;;10.30
14023;BMP180;7086;48.116;11.580;2023-04-16T05:27:39;95174.00;;;10.30
14023;BMP180;7086;48.116;11.580;2023-04-16T05:30:07;95179.00;;;10.30
14023;BMP180;7086;48.116;11.580;2023-04-16T05:32:34;95174.00;;;10.30
14023;BMP180;7086;48.116;11.580;2023-04-16T05:35:01;95164.00;;;10.40
14023;BMP180;7086;48.116;11.580;2023-04-16T05:37:28;95177.00;;;10.30
14023;BMP180;7086;48.116;11.580;2023-04-16T05:39:56;95178.00;;;10.30
14023;BMP180;7086;48.116;11.580;2023-04-16T05:42:23;95172.00;;;10.40
14023;BMP180;7086;48.116;11.580;2023-04-16T05:44:49;95184.00;;;10.40
14023;BMP180;7086;48.116;11.580;2023-04-16T05:47:16;95162.00;;;10.40
14023;BMP180;7086;48.116;11.580;2023-04-16T05:49:43;95176.00;;;10.40
14023;BMP180;7086;48.116;11.580;2023-04-16T05:52:10;95188.00;;;10.40
14023;BMP180;7086;48.116;11.580;2023-04-16T05:54:36;95183.00;;;10.40
14023;BMP180;7086;48.116;11.580;2023-04-16T05:57:05;95198.00;;;10.40
14023;BMP180;7086;48.116;11.580;2023-04-16T05:59:31;95185.00;;;10.40
14023;BMP180;7086;48.116;11.580;2023-04-16T06:01:58;95167.00;;;10.40
14023;BMP180;7086;48.116;11.580;2023-04-16T06:04:25;95183.00;;;10.40
14023;BMP180;7086;48.116;11.580;2023-04-16T06:06:52;95198.00;;;10.50
14023;BMP180;7086;48.116;11.580;2023-04-16T06:09:19;95189.00;;;10.50
14023;BMP180;7086;48.116;11.580;2023-04-16T06:11:45;95210.00;;;10.50
14023;BMP180;7086;48.116;11.580;2023-04-16T06:14:14;95188.00;;;10.60
14023;BMP180;7086;48.116;11.580;2023-04-16T06:16:40;95193.00;;;10.50
14023;BMP180;7086;48.116;11.580;2023-04-16T06:19:07;95212.00;;;10.70
14023;BMP180;7086;48.116;11.580;2023-04-16T06:21:34;95213.00;;;10.70
14023;BMP180;7086;48.116;11.580;2023-04-16T06:24:02;95211.00;;;10.80
14023;BMP180;7086;48.116;11.580;2023-04-16T06:26:29;95182.00;;;10.80
14023;BMP180;7086;48.116;11.580;2023-04-16T06:28:55;95214.00;;;10.80
14023;BMP180;7086;48.116;11.580;2023-04-16T06:31:23;95205.00;;;10.90
14023;BMP180;7086;48.116;11.580;2023-04-16T06:33:50;95192.00;;;10.90
14023;BMP180;7086;48.116;11.580;2023-04-16T06:36:17;95214.00;;;11.00
14023;BMP180;7086;48.116;11.580;2023-04-16T06:38:44;95209.00;;;11.00
14023;BMP180;7086;48.116;11.580;2023-04-16T06:41:11;95206.00;;;11.10
14023;BMP180;7086;48.116;11.580;2023-04-16T06:43:38;95214.00;;;11.10
14023;BMP180;7086;48.116;11.580;2023-04-16T06:46:05;95218.00;;;11.10
14023;BMP180;7086;48.116;11.580;2023-04-16T06:48:33;95228.00;;;11.20
14023;BMP180;7086;48.116;11.580;2023-04-16T06:51:00;95219.00;;;11.30
14023;BMP180;7086;48.116;11.580;2023-04-16T06:53:27;95215.00;;;11.30
14023;BMP180;7086;48.116;11.580;2023-04-16T06:55:54;95221.00;;;11.40
14023;BMP180;7086;48.116;11.580;2023-04-16T06:58:21;95218.00;;;11.40
14023;BMP180;7086;48.116;11.580;2023-04-16T07:00:47;95240.00;;;11.50
14023;BMP180;7086;48.116;11.580;2023-04-16T07:03:14;95222.00;;;11.50
14023;BMP180;7086;48.116;11.580;2023-04-16T07:05:42;95240.00;;;11.60
14023;BMP180;7086;48.116;11.580;2023-04-16T07:08:09;95241.00;;;11.60
14023;BMP180;7086;48.116;11.580;2023-04-16T07:10:37;95245.00;;;11.70
14023;BMP180;7086;48.116;11.580;2023-04-16T07:13:04;95239.00;;;11.70
14023;BMP180;7086;48.116;11.580;2023-04-16T07:15:30;95220.00;;;11.70
14023;BMP180;7086;48.116;11.580;2023-04-16T07:17:57;95250.00;;;11.80
14023;BMP180;7086;48.116;11.580;2023-04-16T07:20:24;95215.00;;;11.80
14023;BMP180;7086;48.116;11.580;2023-04-16T07:22:52;95241.00;;;11.80
14023;BMP180;7086;48.116;11.580;2023-04-16T07:25:19;95218.00;;;11.90
14023;BMP180;7086;48.116;11.580;2023-04-16T07:27:46;95238.00;;;11.90
14023;BMP180;7086;48.116;11.580;2023-04-16T07:30:13;95246.00;;;11.90
14023;BMP180;7086;48.116;11.580;2023-04-16T07:32:40;95238.00;;;11.80
14023;BMP180;7086;48.116;11.580;2023-04-16T07:35:07;95244.00;;;12.00
14023;BMP180;7086;48.116;11.580;2023-04-16T07:37:35;95235.00;;;12.00
14023;BMP180;7086;48.116;11.580;2023-04-16T07:40:04;95230.00;;;12.10
14023;BMP180;7086;48.116;11.580;2023-04-16T07:42:31;95248.00;;;12.10
14023;BMP180;7086;48.116;11.580;2023-04-16T07:44:58;95270.00;;;12.10
14023;BMP180;7086;48.116;11.580;2023-04-16T07:47:25;95254.00;;;12.10
14023;BMP180;7086;48.116;11.580;2023-04-16T07:49:52;95257.00;;;12.00
14023;BMP180;7086;48.116;11.580;2023-04-16T07:52:19;95253.00;;;12.10
14023;BMP180;7086;48.116;11.580;2023-04-16T07:54:46;95260.00;;;12.20
14023;BMP180;7086;48.116;11.580;2023-04-16T07:57:15;95230.00;;;12.20
14023;BMP180;7086;48.116;11.580;2023-04-16T07:59:42;95270.00;;;12.20
14023;BMP180;7086;48.116;11.580;2023-04-16T08:02:13;95279.00;;;12.30
14023;BMP180;7086;48.116;11.580;2023-04-16T08:04:41;95265.00;;;12.30
14023;BMP180;7086;48.116;11.580;2023-04-16T08:07:08;95261.00;;;12.20
14023;BMP180;7086;48.116;11.580;2023-04-16T08:09:34;95193.00;;;12.30
14023;BMP180;7086;48.116;11.580;2023-04-16T08:12:02;95236.00;;;12.40
14023;BMP180;7086;48.116;11.580;2023-04-16T08:14:30;95244.00;;;12.40
14023;BMP180;7086;48.116;11.580;2023-04-16T08:16:57;95272.00;;;12.40
14023;BMP180;7086;48.116;11.580;2023-04-16T08:19:24;95270.00;;;12.30
14023;BMP180;7086;48.116;11.580;2023-04-16T08:21:50;95252.00;;;12.40
14023;BMP180;7086;48.116;11.580;2023-04-16T08:24:17;95278.00;;;12.50
14023;BMP180;7086;48.116;11.580;2023-04-16T08:26:44;95270.00;;;12.50
14023;BMP180;7086;48.116;11.580;2023-04-16T08:29:11;95281.00;;;12.60
14023;BMP180;7086;48.116;11.580;2023-04-16T08:31:39;95287.00;;;12.60
14023;BMP180;7086;48.116;11.580;2023-04-16T08:34:06;95278.00;;;12.60
14023;BMP180;7086;48.116;11.580;2023-04-16T08:36:35;95274.00;;;12.70
14023;BMP180;7086;48.116;11.580;2023-04-16T08:39:02;95255.00;;;12.70
14023;BMP180;7086;48.116;11.580;2023-04-16T08:41:30;95278.00;;;12.80
14023;BMP180;7086;48.116;11.580;2023-04-16T08:43:59;95284.00;;;12.90
14023;BMP180;7086;48.116;11.580;2023-04-16T08:46:30;95283.00;;;13.10
14023;BMP180;7086;48.116;11.580;2023-04-16T08:48:59;95245.00;;;13.10
14023;BMP180;7086;48.116;11.580;2023-04-16T08:51:29;95271.00;;;13.40
14023;BMP180;7086;48.116;11.580;2023-04-16T08:54:02;95292.00;;;13.50
14023;BMP180;7086;48.116;11.580;2023-04-16T08:56:30;95302.00;;;13.70
14023;BMP180;7086;48.116;11.580;2023-04-16T08:58:57;95281.00;;;13.70
14023;BMP180;7086;48.116;11.580;2023-04-16T09:01:27;95271.00;;;13.90
14023;BMP180;7086;48.116;11.580;2023-04-16T09:03:54;95307.00;;;14.10
14023;BMP180;7086;48.116;11.580;2023-04-16T09:06:22;95305.00;;;14.20
14023;BMP180;7086;48.116;11.580;2023-04-16T09:08:52;95299.00;;;14.30
14023;BMP180;7086;48.116;11.580;2023-04-16T09:11:19;95282.00;;;14.30
14023;BMP180;7086;48.116;11.580;2023-04-16T09:13:46;95314.00;;;14.40
14023;BMP180;7086;48.116;11.580;2023-04-16T09:16:13;95314.00;;;14.50
14023;BMP180;7086;48.116;11.580;2023-04-16T09:18:41;95336.00;;;14.50
14023;BMP180;7086;48.116;11.580;2023-04-16T09:21:09;95325.00;;;14.60
14023;BMP180;7086;48.116;11.580;2023-04-16T09:23:37;95285.00;;;14.70
14023;BMP180;7086;48.116;11.580;2023-04-16T09:26:04;95307.00;;;14.70
14023;BMP180;7086;48.116;11.580;2023-04-16T09:28:38;95310.00;;;14.90
14023;BMP180;7086;48.116;11.580;2023-04-16T09:31:07;95291.00;;;14.90
14023;BMP180;7086;48.116;11.580;2023-04-16T09:33:34;95312.00;;;15.10
14023;BMP180;7086;48.116;11.580;2023-04-16T09:36:01;95305.00;;;15.20
14023;BMP180;7086;48.116;11.580;2023-04-16T09:38:44;95286.00;;;15.40
14023;BMP180;7086;48.116;11.580;2023-04-16T09:41:12;95297.00;;;15.50
14023;BMP180;7086;48.116;11.580;2023-04-16T09:43:48;95309.00;;;15.40
14023;BMP180;7086;48.116;11.580;2023-04-16T09:46:15;95312.00;;;15.50
14023;BMP180;7086;48.116;11.580;2023-04-16T09:48:44;95305.00;;;15.50
14023;BMP180;7086;48.116;11.580;2023-04-16T09:51:11;95317.00;;;15.60
14023;BMP180;7086;48.116;11.580;2023-04-16T09:53:38;95308.00;;;15.60
14023;BMP180;7086;48.116;11.580;2023-04-16T09:56:07;95277.00;;;15.70
14023;BMP180;7086;48.116;11.580;2023-04-16T09:58:35;95313.00;;;15.70
14023;BMP180;7086;48.116;11.580;2023-04-16T10:01:02;95321.00;;;15.80
14023;BMP180;7086;48.116;11.580;2023-04-16T10:03:31;95298.00;;;15.70
14023;BMP180;7086;48.116;11.580;2023-04-16T10:05:59;95320.00;;;15.80
14023;BMP180;7086;48.116;11.580;2023-04-16T10:08:27;95294.00;;;15.80
14023;BMP180;7086;48.116;11.580;2023-04-16T10:10:54;95292.00;;;15.80
14023;BMP180;7086;48.116;11.580;2023-04-16T10:13:24;95315.00;;;15.90
14023;BMP180;7086;48.116;11.580;2023-04-16T10:15:55;95300.00;;;15.90
14023;BMP180;7086;48.116;11.580;2023-04-16T10:18:23;95310.00;;;15.80
14023;BMP180;7086;48.116;11.580;2023-04-16T10:20:56;95346.00;;;16.00
14023;BMP180;7086;48.116;11.580;2023-04-16T10:23:30;95228.00;;;16.10
14023;BMP180;7086;48.116;11.580;2023-04-16T10:25:59;95348.00;;;16.20
14023;BMP180;7086;48.116;11.580;2023-04-16T10:28:29;95330.00;;;16.30
14023;BMP180;7086;48.116;11.580;2023-04-16T10:31:11;95219.00;;;16.40
14023;BMP180;7086;48.116;11.580;2023-04-16T10:33:43;95275.00;;;16.40
14023;BMP180;7086;48.116;11.580;2023-04-16T10:36:36;95250.00;;;16.50
14023;BMP180;7086;48.116;11.580;2023-04-16T10:39:10;95197.00;;;16.50
14023;BMP180;7086;48.116;11.580;2023-04-16T10:41:38;95290.00;;;16.50
14023;BMP180;7086;48.116;11.580;2023-04-16T10:44:08;95316.00;;;16.40
14023;BMP180;7086;48.116;11.580;2023-04-16T10:46:37;95317.00;;;16.40
14023;BMP180;7086;48.116;11.580;2023-04-16T10:49:12;95332.00;;;16.30
14023;BMP180;7086;48.116;11.580;2023-04-16T10:51:39;95340.00;;;16.20
14023;BMP180;7086;48.116;11.580;2023-04-16T10:54:19;95330.00;;;16.20
14023;BMP180;7086;48.116;11.580;2023-04-16T10:56:47;95340.00;;;16.20
14023;BMP180;7086;48.116;11.580;2023-04-16T10:59:19;95313.00;;;16.20
14023;BMP180;7086;48.116;11.580;2023-04-16T11:01:47;95352.00;;;16.40
14023;BMP180;7086;48.116;11.580;2023-04-16T11:04:34;95315.00;;;16.40
14023;BMP180;7086;48.116;11.580;2023-04-16T11:07:04;95321.00;;;16.50
14023;BMP180;7086;48.116;11.580;2023-04-16T11:09:43;95347.00;;;16.50
14023;BMP180;7086;48.116;11.580;2023-04-16T11:12:11;95337.00;;;16.50
14023;BMP180;7086;48.116;11.580;2023-04-16T11:14:40;95342.00;;;16.60
14023;BMP180;7086;48.116;11.580;2023-04-16T11:17:08;95340.00;;;16.60
14023;BMP180;7086;48.116;11.580;2023-04-16T11:19:35;95368.00;;;16.30
14023;BMP180;7086;48.116;11.580;2023-04-16T11:22:03;95360.00;;;16.50
14023;BMP180;7086;48.116;11.580;2023-04-16T11:24:34;95345.00;;;16.50
14023;BMP180;7086;48.116;11.580;2023-04-16T11:27:15;95345.00;;;16.50
14023;BMP180;7086;48.116;11.580;2023-04-16T11:29:43;95343.00;;;16.40
14023;BMP180;7086;48.116;11.580;2023-04-16T11:32:19;95317.00;;;16.40
14023;BMP180;7086;48.116;11.580;2023-04-16T11:34:46;95351.00;;;16.30
14023;BMP180;7086;48.116;11.580;2023-04-16T11:37:13;95347.00;;;16.30
14023;BMP180;7086;48.116;11.580;2023-04-16T11:39:50;95348.00;;;16.20
14023;BMP180;7086;48.116;11.580;2023-04-16T11:42:20;95343.00;;;16.10
14023;BMP180;7086;48.116;11.580;2023-04-16T11:44:53;95353.00;;;16.10
14023;BMP180;7086;48.116;11.580;2023-04-16T11:47:21;95355.00;;;16.00
14023;BMP180;7086;48.116;11.580;2023-04-16T11:49:48;95360.00;;;16.10
14023;BMP180;7086;48.116;11.580;2023-04-16T11:52:24;95362.00;;;16.10
14023;BMP180;7086;48.116;11.580;2023-04-16T11:54:52;95358.00;;;16.00
14023;BMP180;7086;48.116;11.580;2023-04-16T11:57:23;95344.00;;;16.00
14023;BMP180;7086;48.116;11.580;2023-04-16T11:59:51;95388.00;;;16.00
14023;BMP180;7086;48.116;11.580;2023-04-16T12:02:33;95381.00;;;16.00
14023;BMP180;7086;48.116;11.580;2023-04-16T12:05:00;95351.00;;;15.80
14023;BMP180;7086;48.116;11.580;2023-04-16T12:07:27;95360.00;;;15.90
14023;BMP180;7086;48.116;11.580;2023-04-16T12:10:05;95363.00;;;15.90
14023;BMP180;7086;48.116;11.580;2023-04-16T12:12:32;95364.00;;;15.80
14023;BMP180;7086;48.116;11.580;2023-04-16T12:15:00;95360.00;;;15.80
14023;BMP180;7086;48.116;11.580;2023-04-16T12:17:30;95359.00;;;15.80
14023;BMP180;7086;48.116;11.580;2023-04-16T12:19:58;95342.00;;;15.80
14023;BMP180;7086;48.116;11.580;2023-04-16T12:22:26;95355.00;;;15.80
14023;BMP180;7086;48.116;11.580;2023-04-16T12:24:55;95362.00;;;15.80
14023;BMP180;7086;48.116;11.580;2023-04-16T12:27:23;95361.00;;;15.70
14023;BMP180;7086;48.116;11.580;2023-04-16T12:30:06;95354.00;;;15.80
14023;BMP180;7086;48.116;11.580;2023-04-16T12:32:34;95373.00;;;15.80
14023;BMP180;7086;48.116;11.580;2023-04-16T12:35:01;95352.00;;;15.80
14023;BMP180;7086;48.116;11.580;2023-04-16T12:37:28;95364.00;;;15.80
14023;BMP180;7086;48.116;11.580;2023-04-16T12:39:55;95365.00;;;15.70
14023;BMP180;7086;48.116;11.580;2023-04-16T12:42:21;95374.00;;;15.80
14023;BMP180;7086;48.116;11.580;2023-04-16T12:44:48;95332.00;;;15.80
14023;BMP180;7086;48.116;11.580;2023-04-16T12:47:15;95337.00;;;15.80
14023;BMP180;7086;48.116;11.580;2023-04-16T12:49:44;95366.00;;;15.80
14023;BMP180;7086;48.116;11.580;2023-04-16T12:52:10;95353.00;;;15.80
14023;BMP180;7086;48.116;11.580;2023-04-16T12:54:37;95386.00;;;15.80
14023;BMP180;7086;48.116;11.580;2023-04-16T12:57:04;95376.00;;;15.80
14023;BMP180;7086;48.116;11.580;2023-04-16T12:59:31;95361.00;;;15.80
14023;BMP180;7086;48.116;11.580;2023-04-16T13:01:59;95335.00;;;15.80
14023;BMP180;7086;48.116;11.580;2023-04-16T13:04:26;95373.00;;;15.70
14023;BMP180;7086;48.116;11.580;2023-04-16T13:06:55;95370.00;;;15.70
14023;BMP180;7086;48.116;11.580;2023-04-16T13:09:21;95352.00;;;15.60
14023;BMP180;7086;48.116;11.580;2023-04-16T13:11:49;95375.00;;;15.60
14023;BMP180;7086;48.116;11.580;2023-04-16T13:14:15;95373.00;;;15.50
14023;BMP180;7086;48.116;11.580;2023-04-16T13:16:42;95369.00;;;15.50
14023;BMP180;7086;48.116;11.580;2023-04-16T13:19:09;95371.00;;;15.40
14023;BMP180;7086;48.116;11.580;2023-04-16T13:21:36;95378.00;;;15.30
14023;BMP180;7086;48.116;11.580;2023-04-16T13:24:04;95371.00;;;15.30
14023;BMP180;7086;48.116;11.580;2023-04-16T13:26:31;95379.00;;;15.20
14023;BMP180;7086;48.116;11.580;2023-04-16T13:28:58;95380.00;;;15.10
14023;BMP180;7086;48.116;11.580;2023-04-16T13:31:25;95382.00;;;15.10
14023;BMP180;7086;48.116;11.580;2023-04-16T13:33:52;95378.00;;;15.00
14023;BMP180;7086;48.116;11.580;2023-04-16T13:36:19;95385.00;;;15.00
14023;BMP180;7086;48.116;11.580;2023-04-16T13:38:45;95375.00;;;14.90
14023;BMP180;7086;48.116;11.580;2023-04-16T13:41:14;95370.00;;;14.90
14023;BMP180;7086;48.116;11.580;2023-04-16T13:43:40;95372.00;;;14.90
14023;BMP180;7086;48.116;11.580;2023-04-16T13:46:07;95375.00;;;14.80
14023;BMP180;7086;48.116;11.580;2023-04-16T13:48:34;95394.00;;;14.90
14023;BMP180;7086;48.116;11.580;2023-04-16T13:51:01;95428.00;;;14.80
14023;BMP180;7086;48.116;11.580;2023-04-16T13:53:28;95382.00;;;14.80
14023;BMP180;7086;48.116;11.580;2023-04-16T13:55:55;95385.00;;;14.70
14023;BMP180;7086;48.116;11.580;2023-04-16T13:58:24;95391.00;;;14.80
14023;BMP180;7086;48.116;11.580;2023-04-16T14:00:52;95384.00;;;14.90
14023;BMP180;7086;48.116;11.580;2023-04-16T14:03:18;95392.00;;;14.90
14023;BMP180;7086;48.116;11.580;2023-04-16T14:05:46;95392.00;;;15.00
14023;BMP180;7086;48.116;11.580;2023-04-16T14:08:12;95389.00;;;15.10
14023;BMP180;7086;48.116;11.580;2023-04-16T14:10:40;95389.00;;;15.10
14023;BMP180;7086;48.116;11.580;2023-04-16T14:13:07;95416.00;;;15.20